sensor_id;sensor_type;location;lat;lon;timestamp;temperature;humidity
29577;DHT22;16509;53.862;10.672;2023-07-20T00:01:51;14.10;99.90
29577;DHT22;16509;53.862;10.672;2023-07-20T00:04:16;13.90;99.90
29577;DHT22;16509;53.862;10.672;2023-07-20T00:06:42;14.10;99.90
29577;DHT22;16509;53.862;10.672;2023-07-20T00:09:07;14.10;99.90
29577;DHT22;16509;53.862;10.672;2023-07-20T00:11:36;14.10;99.90
29577;DHT22;16509;53.862;10.672;2023-07-20T00:14:03;14.10;99.90
29577;DHT22;16509;53.862;10.672;2023-07-20T00:16:29;14.00;99.90
29577;DHT22;16509;53.862;10.672;2023-07-20T00:18:55;14.10;99.90
29577;DHT22;16509;53.862;10.672;2023-07-20T00:21:20;14.10;99.90
29577;DHT22;16509;53.862;10.672;2023-07-20T00:23:46;14.10;99.90
29577;DHT22;16509;53.862;10.672;2023-07-20T00:26:11;17.40;99.90
29577;DHT22;16509;53.862;10.672;2023-07-20T00:28:37;14.20;99.90
29577;DHT22;16509;53.862;10.672;2023-07-20T00:31:02;14.20;99.90
29577;DHT22;16509;53.862;10.672;2023-07-20T00:33:28;14.40;99.90
29577;DHT22;16509;53.862;10.672;2023-07-20T00:35:53;14.20;99.90
29577;DHT22;16509;53.862;10.672;2023-07-20T00:38:19;14.20;99.90
29577;DHT22;16509;53.862;10.672;2023-07-20T00:40:46;14.30;99.90
29577;DHT22;16509;53.862;10.672;2023-07-20T00:43:11;14.20;99.90
29577;DHT22;16509;53.862;10.672;2023-07-20T00:45:38;14.00;99.90
29577;DHT22;16509;53.862;10.672;2023-07-20T00:48:04;14.20;99.90
29577;DHT22;16509;53.862;10.672;2023-07-20T00:50:32;14.30;99.90
29577;DHT22;16509;53.862;10.672;2023-07-20T00:52:58;14.10;99.90
29577;DHT22;16509;53.862;10.672;2023-07-20T00:55:24;14.10;99.90
29577;DHT22;16509;53.862;10.672;2023-07-20T00:57:50;14.20;99.90
29577;DHT22;16509;53.862;10.672;2023-07-20T01:00:16;14.30;99.90
29577;DHT22;16509;53.862;10.672;2023-07-20T01:02:42;14.00;99.90
29577;DHT22;16509;53.862;10.672;2023-07-20T01:05:08;14.40;99.90
29577;DHT22;16509;53.862;10.672;2023-07-20T01:07:42;14.30;99.90
29577;DHT22;16509;53.862;10.672;2023-07-20T01:10:20;14.20;99.90
29577;DHT22;16509;53.862;10.672;2023-07-20T01:12:47;13.00;99.90
29577;DHT22;16509;53.862;10.672;2023-07-20T01:15:13;15.10;99.90
29577;DHT22;16509;53.862;10.672;2023-07-20T01:17:39;14.10;99.90
29577;DHT22;16509;53.862;10.672;2023-07-20T01:20:07;14.90;99.90
29577;DHT22;16509;53.862;10.672;2023-07-20T01:23:14;14.00;99.90
29577;DHT22;16509;53.862;10.672;2023-07-20T01:31:34;14.20;99.90
29577;DHT22;16509;53.862;10.672;2023-07-20T01:34:02;14.00;99.90
29577;DHT22;16509;53.862;10.672;2023-07-20T01:36:30;14.20;99.90
29577;DHT22;16509;53.862;10.672;2023-07-20T01:38:58;14.30;99.90
29577;DHT22;16509;53.862;10.672;2023-07-20T01:41:24;14.10;99.90
29577;DHT22;16509;53.862;10.672;2023-07-20T01:43:50;14.30;99.90
29577;DHT22;16509;53.862;10.672;2023-07-20T01:46:15;14.30;99.90
29577;DHT22;16509;53.862;10.672;2023-07-20T01:48:41;14.20;99.90
29577;DHT22;16509;53.862;10.672;2023-07-20T01:51:07;14.10;99.90
29577;DHT22;16509;53.862;10.672;2023-07-20T01:55:59;14.20;99.90
29577;DHT22;16509;53.862;10.672;2023-07-20T01:58:25;14.10;99.90
29577;DHT22;16509;53.862;10.672;2023-07-20T02:00:51;14.30;99.90
29577;DHT22;16509;53.862;10.672;2023-07-20T02:03:16;14.20;99.90
29577;DHT22;16509;53.862;10.672;2023-07-20T02:05:45;14.20;99.90
29577;DHT22;16509;53.862;10.672;2023-07-20T02:08:10;14.20;99.90
29577;DHT22;16509;53.862;10.672;2023-07-20T02:10:36;14.20;99.90
29577;DHT22;16509;53.862;10.672;2023-07-20T02:13:02;15.40;99.90
29577;DHT22;16509;53.862;10.672;2023-07-20T02:22:25;14.20;99.90
29577;DHT22;16509;53.862;10.672;2023-07-20T02:24:50;15.90;99.90
29577;DHT22;16509;53.862;10.672;2023-07-20T02:30:05;14.10;99.90
29577;DHT22;16509;53.862;10.672;2023-07-20T02:39:50;14.20;99.90
29577;DHT22;16509;53.862;10.672;2023-07-20T02:42:15;14.20;99.90
29577;DHT22;16509;53.862;10.672;2023-07-20T02:51:59;14.20;99.90
29577;DHT22;16509;53.862;10.672;2023-07-20T02:54:29;14.20;99.90
29577;DHT22;16509;53.862;10.672;2023-07-20T02:59:22;14.20;99.90
29577;DHT22;16509;53.862;10.672;2023-07-20T03:18:59;14.10;99.90
29577;DHT22;16509;53.862;10.672;2023-07-20T03:33:44;14.20;99.90
29577;DHT22;16509;53.862;10.672;2023-07-20T03:36:32;14.10;99.90
29577;DHT22;16509;53.862;10.672;2023-07-20T03:39:07;14.30;99.90
29577;DHT22;16509;53.862;10.672;2023-07-20T03:44:01;14.20;99.90
29577;DHT22;16509;53.862;10.672;2023-07-20T04:03:28;14.30;99.90
29577;DHT22;16509;53.862;10.672;2023-07-20T04:05:54;16.10;99.90
29577;DHT22;16509;53.862;10.672;2023-07-20T04:08:24;14.20;99.90
29577;DHT22;16509;53.862;10.672;2023-07-20T04:10:50;14.00;99.90
29577;DHT22;16509;53.862;10.672;2023-07-20T04:13:15;14.10;99.90
29577;DHT22;16509;53.862;10.672;2023-07-20T04:15:42;14.30;99.90
29577;DHT22;16509;53.862;10.672;2023-07-20T04:18:07;14.20;99.90
29577;DHT22;16509;53.862;10.672;2023-07-20T04:20:33;14.30;99.90
29577;DHT22;16509;53.862;10.672;2023-07-20T04:22:59;14.40;99.90
29577;DHT22;16509;53.862;10.672;2023-07-20T04:25:24;15.50;99.90
29577;DHT22;16509;53.862;10.672;2023-07-20T04:27:50;14.60;99.90
29577;DHT22;16509;53.862;10.672;2023-07-20T04:30:18;14.40;99.90
29577;DHT22;16509;53.862;10.672;2023-07-20T04:32:48;14.70;99.90
29577;DHT22;16509;53.862;10.672;2023-07-20T04:35:26;14.70;99.90
29577;DHT22;16509;53.862;10.672;2023-07-20T04:38:03;14.70;99.90
29577;DHT22;16509;53.862;10.672;2023-07-20T04:40:29;14.90;99.90
29577;DHT22;16509;53.862;10.672;2023-07-20T04:42:54;14.60;99.90
29577;DHT22;16509;53.862;10.672;2023-07-20T04:45:20;14.60;99.90
29577;DHT22;16509;53.862;10.672;2023-07-20T04:47:48;14.60;99.90
29577;DHT22;16509;53.862;10.672;2023-07-20T04:50:15;15.90;99.90
29577;DHT22;16509;53.862;10.672;2023-07-20T04:52:41;14.60;99.90
29577;DHT22;16509;53.862;10.672;2023-07-20T04:57:33;14.50;99.90
29577;DHT22;16509;53.862;10.672;2023-07-20T04:59:58;14.50;99.90
29577;DHT22;16509;53.862;10.672;2023-07-20T05:02:24;14.40;99.90
29577;DHT22;16509;53.862;10.672;2023-07-20T05:04:49;14.60;99.90
29577;DHT22;16509;53.862;10.672;2023-07-20T05:07:15;14.50;99.90
29577;DHT22;16509;53.862;10.672;2023-07-20T05:09:40;14.80;99.90
29577;DHT22;16509;53.862;10.672;2023-07-20T05:12:06;14.70;99.90
29577;DHT22;16509;53.862;10.672;2023-07-20T05:14:32;14.70;99.90
29577;DHT22;16509;53.862;10.672;2023-07-20T05:16:58;14.60;99.90
29577;DHT22;16509;53.862;10.672;2023-07-20T05:19:25;15.00;99.90
29577;DHT22;16509;53.862;10.672;2023-07-20T05:21:51;14.80;99.90
29577;DHT22;16509;53.862;10.672;2023-07-20T05:24:16;14.80;99.90
29577;DHT22;16509;53.862;10.672;2023-07-20T05:26:42;15.00;99.90
29577;DHT22;16509;53.862;10.672;2023-07-20T05:29:07;14.90;99.90
29577;DHT22;16509;53.862;10.672;2023-07-20T05:31:33;17.10;99.90
29577;DHT22;16509;53.862;10.672;2023-07-20T05:33:58;15.10;99.90
29577;DHT22;16509;53.862;10.672;2023-07-20T05:36:24;15.40;99.90
29577;DHT22;16509;53.862;10.672;2023-07-20T05:38:50;15.20;99.90
29577;DHT22;16509;53.862;10.672;2023-07-20T05:51:17;15.40;99.90
29577;DHT22;16509;53.862;10.672;2023-07-20T05:56:56;15.80;99.90
29577;DHT22;16509;53.862;10.672;2023-07-20T06:01:55;16.00;99.90
29577;DHT22;16509;53.862;10.672;2023-07-20T06:04:32;16.10;99.90
29577;DHT22;16509;53.862;10.672;2023-07-20T06:07:26;16.00;99.90
29577;DHT22;16509;53.862;10.672;2023-07-20T06:09:57;16.30;99.90
29577;DHT22;16509;53.862;10.672;2023-07-20T06:12:48;16.40;99.90
29577;DHT22;16509;53.862;10.672;2023-07-20T06:16:07;16.50;99.90
29577;DHT22;16509;53.862;10.672;2023-07-20T06:34:16;17.30;99.90
29577;DHT22;16509;53.862;10.672;2023-07-20T06:40:05;17.40;99.90
29577;DHT22;16509;53.862;10.672;2023-07-20T06:42:38;17.90;99.90
29577;DHT22;16509;53.862;10.672;2023-07-20T06:45:09;17.90;99.90
29577;DHT22;16509;53.862;10.672;2023-07-20T06:50:18;17.70;99.90
29577;DHT22;16509;53.862;10.672;2023-07-20T06:55:17;17.80;99.90
29577;DHT22;16509;53.862;10.672;2023-07-20T07:02:40;18.10;99.90
29577;DHT22;16509;53.862;10.672;2023-07-20T07:05:08;18.50;99.90
29577;DHT22;16509;53.862;10.672;2023-07-20T07:10:03;18.70;99.90
29577;DHT22;16509;53.862;10.672;2023-07-20T07:39:22;19.20;99.90
29577;DHT22;16509;53.862;10.672;2023-07-20T08:28:10;20.60;99.90
29577;DHT22;16509;53.862;10.672;2023-07-20T08:30:44;20.80;99.90
29577;DHT22;16509;53.862;10.672;2023-07-20T08:33:12;20.70;99.90
29577;DHT22;16509;53.862;10.672;2023-07-20T08:40:35;20.80;99.90
29577;DHT22;16509;53.862;10.672;2023-07-20T08:45:33;21.00;99.90
29577;DHT22;16509;53.862;10.672;2023-07-20T08:48:00;21.10;99.90
29577;DHT22;16509;53.862;10.672;2023-07-20T08:50:30;21.00;99.90
29577;DHT22;16509;53.862;10.672;2023-07-20T08:55:26;20.70;99.90
29577;DHT22;16509;53.862;10.672;2023-07-20T08:57:54;20.80;99.90
29577;DHT22;16509;53.862;10.672;2023-07-20T09:00:21;20.70;99.90
29577;DHT22;16509;53.862;10.672;2023-07-20T09:02:49;20.70;99.90
29577;DHT22;16509;53.862;10.672;2023-07-20T09:05:16;20.20;99.90
29577;DHT22;16509;53.862;10.672;2023-07-20T09:10:08;18.90;99.90
29577;DHT22;16509;53.862;10.672;2023-07-20T09:12:42;18.00;99.90
29577;DHT22;16509;53.862;10.672;2023-07-20T09:15:09;17.60;99.90
29577;DHT22;16509;53.862;10.672;2023-07-20T09:17:35;17.50;99.90
29577;DHT22;16509;53.862;10.672;2023-07-20T09:20:06;17.50;99.90
29577;DHT22;16509;53.862;10.672;2023-07-20T09:22:37;17.90;99.90
29577;DHT22;16509;53.862;10.672;2023-07-20T09:50:50;18.10;99.90
29577;DHT22;16509;53.862;10.672;2023-07-20T10:00:41;17.00;99.90
29577;DHT22;16509;53.862;10.672;2023-07-20T10:03:16;17.40;99.90
29577;DHT22;16509;53.862;10.672;2023-07-20T10:05:47;17.80;99.90
29577;DHT22;16509;53.862;10.672;2023-07-20T10:08:16;18.10;99.90
29577;DHT22;16509;53.862;10.672;2023-07-20T10:21:23;17.80;99.90
29577;DHT22;16509;53.862;10.672;2023-07-20T10:31:10;17.40;99.90
29577;DHT22;16509;53.862;10.672;2023-07-20T10:33:37;17.80;99.90
29577;DHT22;16509;53.862;10.672;2023-07-20T10:36:04;18.30;99.90
29577;DHT22;16509;53.862;10.672;2023-07-20T10:41:32;18.80;99.90
29577;DHT22;16509;53.862;10.672;2023-07-20T10:44:04;19.20;99.90
29577;DHT22;16509;53.862;10.672;2023-07-20T10:49:09;19.20;99.90
29577;DHT22;16509;53.862;10.672;2023-07-20T10:51:40;19.00;99.90
29577;DHT22;16509;53.862;10.672;2023-07-20T11:09:14;17.20;99.90
29577;DHT22;16509;53.862;10.672;2023-07-20T11:14:11;18.50;99.90
29577;DHT22;16509;53.862;10.672;2023-07-20T11:16:47;18.90;99.90
29577;DHT22;16509;53.862;10.672;2023-07-20T11:19:24;19.30;99.90
29577;DHT22;16509;53.862;10.672;2023-07-20T11:21:55;19.70;99.90
29577;DHT22;16509;53.862;10.672;2023-07-20T11:42:32;17.60;99.90
29577;DHT22;16509;53.862;10.672;2023-07-20T12:18:01;21.70;99.90
29577;DHT22;16509;53.862;10.672;2023-07-20T12:23:59;20.60;99.90
29577;DHT22;16509;53.862;10.672;2023-07-20T12:27:17;21.30;99.90
29577;DHT22;16509;53.862;10.672;2023-07-20T12:30:12;20.90;99.90
29577;DHT22;16509;53.862;10.672;2023-07-20T12:32:53;20.80;99.90
29577;DHT22;16509;53.862;10.672;2023-07-20T12:35:18;20.60;99.90
29577;DHT22;16509;53.862;10.672;2023-07-20T12:47:41;20.70;99.90
29577;DHT22;16509;53.862;10.672;2023-07-20T12:56:19;22.00;99.90
29577;DHT22;16509;53.862;10.672;2023-07-20T13:02:14;22.30;99.90
29577;DHT22;16509;53.862;10.672;2023-07-20T13:11:12;21.40;99.90
29577;DHT22;16509;53.862;10.672;2023-07-20T13:14:00;20.90;99.90
29577;DHT22;16509;53.862;10.672;2023-07-20T13:20:10;20.10;99.90
29577;DHT22;16509;53.862;10.672;2023-07-20T13:22:40;19.90;99.90
29577;DHT22;16509;53.862;10.672;2023-07-20T13:28:05;19.60;99.90
29577;DHT22;16509;53.862;10.672;2023-07-20T13:33:08;19.40;99.90
29577;DHT22;16509;53.862;10.672;2023-07-20T13:42:28;19.90;99.90
29577;DHT22;16509;53.862;10.672;2023-07-20T13:45:19;19.50;99.90
29577;DHT22;16509;53.862;10.672;2023-07-20T13:48:08;19.20;99.90
29577;DHT22;16509;53.862;10.672;2023-07-20T13:51:05;19.10;99.90
29577;DHT22;16509;53.862;10.672;2023-07-20T13:56:21;19.10;99.90
29577;DHT22;16509;53.862;10.672;2023-07-20T13:58:55;19.10;99.90
29577;DHT22;16509;53.862;10.672;2023-07-20T14:03:58;18.60;99.90
29577;DHT22;16509;53.862;10.672;2023-07-20T14:06:30;18.30;99.90
29577;DHT22;16509;53.862;10.672;2023-07-20T14:16:14;17.60;99.90
29577;DHT22;16509;53.862;10.672;2023-07-20T14:18:40;17.60;99.90
29577;DHT22;16509;53.862;10.672;2023-07-20T14:21:05;17.50;99.90
29577;DHT22;16509;53.862;10.672;2023-07-20T14:28:24;17.60;99.90
29577;DHT22;16509;53.862;10.672;2023-07-20T14:30:50;18.90;99.90
29577;DHT22;16509;53.862;10.672;2023-07-20T14:33:16;17.60;99.90
29577;DHT22;16509;53.862;10.672;2023-07-20T14:35:41;17.70;99.90
29577;DHT22;16509;53.862;10.672;2023-07-20T14:38:07;18.10;99.90
29577;DHT22;16509;53.862;10.672;2023-07-20T14:42:58;18.00;99.90
29577;DHT22;16509;53.862;10.672;2023-07-20T14:45:29;18.30;99.90
29577;DHT22;16509;53.862;10.672;2023-07-20T14:47:54;18.40;99.90
29577;DHT22;16509;53.862;10.672;2023-07-20T14:52:46;18.40;99.90
29577;DHT22;16509;53.862;10.672;2023-07-20T14:55:12;18.50;99.90
29577;DHT22;16509;53.862;10.672;2023-07-20T14:57:38;18.70;99.90
29577;DHT22;16509;53.862;10.672;2023-07-20T15:00:05;18.80;99.90
29577;DHT22;16509;53.862;10.672;2023-07-20T15:02:38;19.00;99.90
29577;DHT22;16509;53.862;10.672;2023-07-20T15:05:07;19.10;99.90
29577;DHT22;16509;53.862;10.672;2023-07-20T15:07:33;18.90;99.90
29577;DHT22;16509;53.862;10.672;2023-07-20T15:12:24;19.20;99.90
29577;DHT22;16509;53.862;10.672;2023-07-20T15:15:04;19.30;99.90
29577;DHT22;16509;53.862;10.672;2023-07-20T15:17:30;19.60;99.90
29577;DHT22;16509;53.862;10.672;2023-07-20T15:19:56;19.40;99.90
29577;DHT22;16509;53.862;10.672;2023-07-20T15:22:21;19.50;99.90
29577;DHT22;16509;53.862;10.672;2023-07-20T15:24:47;20.90;99.90
29577;DHT22;16509;53.862;10.672;2023-07-20T15:27:13;20.00;99.90
29577;DHT22;16509;53.862;10.672;2023-07-20T15:29:38;20.20;99.90
29577;DHT22;16509;53.862;10.672;2023-07-20T15:32:04;20.00;99.90
29577;DHT22;16509;53.862;10.672;2023-07-20T15:34:31;19.80;99.90
29577;DHT22;16509;53.862;10.672;2023-07-20T15:36:57;19.80;99.90
29577;DHT22;16509;53.862;10.672;2023-07-20T15:39:22;19.70;99.90
29577;DHT22;16509;53.862;10.672;2023-07-20T15:42:25;19.80;99.90
29577;DHT22;16509;53.862;10.672;2023-07-20T15:44:51;19.90;99.90
29577;DHT22;16509;53.862;10.672;2023-07-20T15:47:16;19.90;99.90
29577;DHT22;16509;53.862;10.672;2023-07-20T15:49:43;19.70;99.90
29577;DHT22;16509;53.862;10.672;2023-07-20T15:52:08;19.60;99.90
29577;DHT22;16509;53.862;10.672;2023-07-20T15:54:34;19.60;99.90
29577;DHT22;16509;53.862;10.672;2023-07-20T15:56:59;19.20;99.90
29577;DHT22;16509;53.862;10.672;2023-07-20T15:59:25;19.30;99.90
29577;DHT22;16509;53.862;10.672;2023-07-20T16:01:50;19.10;99.90
29577;DHT22;16509;53.862;10.672;2023-07-20T16:09:08;19.00;99.90
29577;DHT22;16509;53.862;10.672;2023-07-20T16:11:35;19.00;99.90
29577;DHT22;16509;53.862;10.672;2023-07-20T16:14:01;19.10;99.90
29577;DHT22;16509;53.862;10.672;2023-07-20T16:16:31;19.20;99.90
29577;DHT22;16509;53.862;10.672;2023-07-20T16:18:56;19.20;99.90
29577;DHT22;16509;53.862;10.672;2023-07-20T16:21:22;19.10;99.90
29577;DHT22;16509;53.862;10.672;2023-07-20T16:23:47;18.70;99.90
29577;DHT22;16509;53.862;10.672;2023-07-20T16:26:13;18.70;99.90
29577;DHT22;16509;53.862;10.672;2023-07-20T16:28:39;19.00;99.90
29577;DHT22;16509;53.862;10.672;2023-07-20T16:31:12;18.60;99.90
29577;DHT22;16509;53.862;10.672;2023-07-20T16:33:38;18.50;99.90
29577;DHT22;16509;53.862;10.672;2023-07-20T16:36:08;18.50;99.90
29577;DHT22;16509;53.862;10.672;2023-07-20T16:38:34;18.50;99.90
29577;DHT22;16509;53.862;10.672;2023-07-20T16:41:00;18.50;99.90
29577;DHT22;16509;53.862;10.672;2023-07-20T16:43:25;18.50;99.90
29577;DHT22;16509;53.862;10.672;2023-07-20T16:45:51;18.60;99.90
29577;DHT22;16509;53.862;10.672;2023-07-20T16:48:16;18.80;99.90
29577;DHT22;16509;53.862;10.672;2023-07-20T16:50:42;18.90;99.90
29577;DHT22;16509;53.862;10.672;2023-07-20T16:53:07;18.70;99.90
29577;DHT22;16509;53.862;10.672;2023-07-20T16:55:33;18.80;99.90
29577;DHT22;16509;53.862;10.672;2023-07-20T16:57:59;18.70;99.90
29577;DHT22;16509;53.862;10.672;2023-07-20T17:00:24;20.40;99.90
29577;DHT22;16509;53.862;10.672;2023-07-20T17:02:50;18.60;99.90
29577;DHT22;16509;53.862;10.672;2023-07-20T17:05:16;18.50;99.90
29577;DHT22;16509;53.862;10.672;2023-07-20T17:07:42;18.50;99.90
29577;DHT22;16509;53.862;10.672;2023-07-20T17:10:08;18.40;99.90
29577;DHT22;16509;53.862;10.672;2023-07-20T17:12:37;18.40;99.90
29577;DHT22;16509;53.862;10.672;2023-07-20T17:15:03;20.00;99.90
29577;DHT22;16509;53.862;10.672;2023-07-20T17:17:28;18.20;99.90
29577;DHT22;16509;53.862;10.672;2023-07-20T17:19:54;18.40;99.90
29577;DHT22;16509;53.862;10.672;2023-07-20T17:22:19;21.20;99.90
29577;DHT22;16509;53.862;10.672;2023-07-20T17:24:45;18.40;99.90
29577;DHT22;16509;53.862;10.672;2023-07-20T17:29:37;18.20;99.90
29577;DHT22;16509;53.862;10.672;2023-07-20T17:32:03;18.30;99.90
29577;DHT22;16509;53.862;10.672;2023-07-20T17:34:28;18.20;99.90
29577;DHT22;16509;53.862;10.672;2023-07-20T17:36:54;18.00;99.90
29577;DHT22;16509;53.862;10.672;2023-07-20T17:39:21;17.90;99.90
29577;DHT22;16509;53.862;10.672;2023-07-20T17:41:47;17.90;99.90
29577;DHT22;16509;53.862;10.672;2023-07-20T17:44:12;20.40;99.90
29577;DHT22;16509;53.862;10.672;2023-07-20T17:46:38;19.50;99.90
29577;DHT22;16509;53.862;10.672;2023-07-20T17:49:04;17.90;99.90
29577;DHT22;16509;53.862;10.672;2023-07-20T17:51:30;17.60;99.90
29577;DHT22;16509;53.862;10.672;2023-07-20T17:53:56;17.80;99.90
29577;DHT22;16509;53.862;10.672;2023-07-20T17:56:21;18.00;99.90
29577;DHT22;16509;53.862;10.672;2023-07-20T17:58:47;17.80;99.90
29577;DHT22;16509;53.862;10.672;2023-07-20T18:01:12;17.60;99.90
29577;DHT22;16509;53.862;10.672;2023-07-20T18:03:38;17.80;99.90
29577;DHT22;16509;53.862;10.672;2023-07-20T18:06:07;17.80;99.90
29577;DHT22;16509;53.862;10.672;2023-07-20T18:08:34;17.70;99.90
29577;DHT22;16509;53.862;10.672;2023-07-20T18:11:04;17.90;99.90
29577;DHT22;16509;53.862;10.672;2023-07-20T18:13:29;17.80;99.90
29577;DHT22;16509;53.862;10.672;2023-07-20T18:15:55;17.70;99.90
29577;DHT22;16509;53.862;10.672;2023-07-20T18:18:21;17.70;99.90
29577;DHT22;16509;53.862;10.672;2023-07-20T18:23:13;17.40;99.90
29577;DHT22;16509;53.862;10.672;2023-07-20T18:25:38;17.40;99.90
29577;DHT22;16509;53.862;10.672;2023-07-20T18:28:06;16.00;99.90
29577;DHT22;16509;53.862;10.672;2023-07-20T18:30:32;17.60;99.90
29577;DHT22;16509;53.862;10.672;2023-07-20T18:33:00;17.50;99.90
29577;DHT22;16509;53.862;10.672;2023-07-20T18:35:26;17.30;99.90
29577;DHT22;16509;53.862;10.672;2023-07-20T18:37:52;20.20;99.90
29577;DHT22;16509;53.862;10.672;2023-07-20T18:40:17;17.40;99.90
29577;DHT22;16509;53.862;10.672;2023-07-20T18:42:43;17.30;99.90
29577;DHT22;16509;53.862;10.672;2023-07-20T18:45:09;17.30;99.90
29577;DHT22;16509;53.862;10.672;2023-07-20T18:47:34;17.20;99.90
29577;DHT22;16509;53.862;10.672;2023-07-20T18:50:00;17.20;99.90
29577;DHT22;16509;53.862;10.672;2023-07-20T18:52:26;18.10;99.90
29577;DHT22;16509;53.862;10.672;2023-07-20T18:54:51;17.10;99.90
29577;DHT22;16509;53.862;10.672;2023-07-20T18:57:26;17.00;99.90
29577;DHT22;16509;53.862;10.672;2023-07-20T18:59:52;16.90;99.90
29577;DHT22;16509;53.862;10.672;2023-07-20T19:02:17;16.90;99.90
29577;DHT22;16509;53.862;10.672;2023-07-20T19:04:44;16.80;99.90
29577;DHT22;16509;53.862;10.672;2023-07-20T19:07:10;16.80;99.90
29577;DHT22;16509;53.862;10.672;2023-07-20T19:09:35;16.60;99.90
29577;DHT22;16509;53.862;10.672;2023-07-20T19:12:01;16.60;99.90
29577;DHT22;16509;53.862;10.672;2023-07-20T19:14:26;16.50;99.90
29577;DHT22;16509;53.862;10.672;2023-07-20T19:16:52;16.40;99.90
29577;DHT22;16509;53.862;10.672;2023-07-20T19:19:17;16.40;99.90
29577;DHT22;16509;53.862;10.672;2023-07-20T19:21:45;16.40;99.90
29577;DHT22;16509;53.862;10.672;2023-07-20T19:24:11;16.50;99.90
29577;DHT22;16509;53.862;10.672;2023-07-20T19:26:36;18.10;99.90
29577;DHT22;16509;53.862;10.672;2023-07-20T19:29:02;16.40;99.90
29577;DHT22;16509;53.862;10.672;2023-07-20T19:31:28;16.30;99.90
29577;DHT22;16509;53.862;10.672;2023-07-20T19:33:53;16.20;99.90
29577;DHT22;16509;53.862;10.672;2023-07-20T19:36:19;16.80;99.90
29577;DHT22;16509;53.862;10.672;2023-07-20T19:38:45;16.50;99.90
29577;DHT22;16509;53.862;10.672;2023-07-20T19:41:11;16.00;99.90
29577;DHT22;16509;53.862;10.672;2023-07-20T19:43:36;17.40;99.90
29577;DHT22;16509;53.862;10.672;2023-07-20T19:46:02;15.90;99.90
29577;DHT22;16509;53.862;10.672;2023-07-20T19:48:28;15.80;99.90
29577;DHT22;16509;53.862;10.672;2023-07-20T19:50:53;15.80;99.90
29577;DHT22;16509;53.862;10.672;2023-07-20T19:53:20;15.80;99.90
29577;DHT22;16509;53.862;10.672;2023-07-20T19:55:46;16.00;99.90
29577;DHT22;16509;53.862;10.672;2023-07-20T19:58:12;15.70;99.90
29577;DHT22;16509;53.862;10.672;2023-07-20T20:00:38;15.60;99.90
29577;DHT22;16509;53.862;10.672;2023-07-20T20:03:05;15.60;99.90
29577;DHT22;16509;53.862;10.672;2023-07-20T20:05:30;15.50;99.90
29577;DHT22;16509;53.862;10.672;2023-07-20T20:07:56;15.40;99.90
29577;DHT22;16509;53.862;10.672;2023-07-20T20:10:21;15.30;99.90
29577;DHT22;16509;53.862;10.672;2023-07-20T20:12:47;15.40;99.90
29577;DHT22;16509;53.862;10.672;2023-07-20T20:15:12;15.80;99.90
29577;DHT22;16509;53.862;10.672;2023-07-20T20:17:38;16.80;99.90
29577;DHT22;16509;53.862;10.672;2023-07-20T20:20:05;15.30;99.90
29577;DHT22;16509;53.862;10.672;2023-07-20T20:22:31;15.20;99.90
29577;DHT22;16509;53.862;10.672;2023-07-20T20:24:56;15.20;99.90
29577;DHT22;16509;53.862;10.672;2023-07-20T20:27:22;15.20;99.90
29577;DHT22;16509;53.862;10.672;2023-07-20T20:29:48;15.20;99.90
29577;DHT22;16509;53.862;10.672;2023-07-20T20:32:13;15.30;99.90
29577;DHT22;16509;53.862;10.672;2023-07-20T20:34:39;15.20;99.90
29577;DHT22;16509;53.862;10.672;2023-07-20T20:37:05;15.10;99.90
29577;DHT22;16509;53.862;10.672;2023-07-20T20:39:30;15.10;99.90
29577;DHT22;16509;53.862;10.672;2023-07-20T20:41:56;15.10;99.90
29577;DHT22;16509;53.862;10.672;2023-07-20T20:44:21;15.00;99.90
29577;DHT22;16509;53.862;10.672;2023-07-20T20:46:52;15.70;99.90
29577;DHT22;16509;53.862;10.672;2023-07-20T20:49:26;16.70;99.90
29577;DHT22;16509;53.862;10.672;2023-07-20T20:51:53;14.90;99.90
29577;DHT22;16509;53.862;10.672;2023-07-20T20:54:19;16.70;99.90
29577;DHT22;16509;53.862;10.672;2023-07-20T20:56:44;14.80;99.90
29577;DHT22;16509;53.862;10.672;2023-07-20T20:59:10;14.80;99.90
29577;DHT22;16509;53.862;10.672;2023-07-20T21:01:35;14.70;99.90
29577;DHT22;16509;53.862;10.672;2023-07-20T21:04:01;14.70;99.90
29577;DHT22;16509;53.862;10.672;2023-07-20T21:06:26;14.70;99.90
29577;DHT22;16509;53.862;10.672;2023-07-20T21:08:52;14.60;99.90
29577;DHT22;16509;53.862;10.672;2023-07-20T21:11:18;14.60;99.90
29577;DHT22;16509;53.862;10.672;2023-07-20T21:13:44;14.50;99.90
29577;DHT22;16509;53.862;10.672;2023-07-20T21:16:09;14.50;99.90
29577;DHT22;16509;53.862;10.672;2023-07-20T21:18:35;16.20;99.90
29577;DHT22;16509;53.862;10.672;2023-07-20T21:21:01;15.00;99.90
29577;DHT22;16509;53.862;10.672;2023-07-20T21:23:27;14.50;99.90
29577;DHT22;16509;53.862;10.672;2023-07-20T21:25:52;14.50;99.90
29577;DHT22;16509;53.862;10.672;2023-07-20T21:28:18;15.80;99.90
29577;DHT22;16509;53.862;10.672;2023-07-20T21:30:44;14.40;99.90
29577;DHT22;16509;53.862;10.672;2023-07-20T21:33:10;14.40;99.90
29577;DHT22;16509;53.862;10.672;2023-07-20T21:35:38;14.40;99.90
29577;DHT22;16509;53.862;10.672;2023-07-20T21:38:04;14.30;99.90
29577;DHT22;16509;53.862;10.672;2023-07-20T21:40:30;14.30;99.90
29577;DHT22;16509;53.862;10.672;2023-07-20T21:42:55;14.30;99.90
29577;DHT22;16509;53.862;10.672;2023-07-20T21:45:23;14.30;99.90
29577;DHT22;16509;53.862;10.672;2023-07-20T21:47:49;14.40;99.90
29577;DHT22;16509;53.862;10.672;2023-07-20T21:50:15;14.40;99.90
29577;DHT22;16509;53.862;10.672;2023-07-20T21:52:41;14.40;99.90
29577;DHT22;16509;53.862;10.672;2023-07-20T21:55:07;15.20;99.90
29577;DHT22;16509;53.862;10.672;2023-07-20T21:57:33;14.30;99.90
29577;DHT22;16509;53.862;10.672;2023-07-20T21:59:59;14.30;99.90
29577;DHT22;16509;53.862;10.672;2023-07-20T22:02:24;15.70;99.90
29577;DHT22;16509;53.862;10.672;2023-07-20T22:04:50;14.30;99.90
29577;DHT22;16509;53.862;10.672;2023-07-20T22:07:16;14.20;99.90
29577;DHT22;16509;53.862;10.672;2023-07-20T22:09:44;14.20;99.90
29577;DHT22;16509;53.862;10.672;2023-07-20T22:12:13;14.30;99.90
29577;DHT22;16509;53.862;10.672;2023-07-20T22:14:41;14.20;99.90
29577;DHT22;16509;53.862;10.672;2023-07-20T22:17:08;14.20;99.90
29577;DHT22;16509;53.862;10.672;2023-07-20T22:19:34;16.30;99.90
29577;DHT22;16509;53.862;10.672;2023-07-20T22:22:00;14.10;99.90
29577;DHT22;16509;53.862;10.672;2023-07-20T22:24:31;14.00;99.90